This is the latest recevied weather packets stored in our database for station/object G7KXT-10. If no packets are shown the sender has not sent any weather packets the latest 10 day(s).
| Time | Temp. | Humidity | Pressure | Rain* | Wind** | Luminosity | Snow |
|---|---|---|---|---|---|---|---|
| 1788006172 | 76° F | 58% | 753.4 mmHg | - | - | - | - |
| 1788005272 | 76° F | 58% | 753.3 mmHg | - | - | - | - |
| 1788004371 | 76° F | 58% | 753.4 mmHg | - | - | - | - |
| 1788003467 | 76° F | 58% | 753.6 mmHg | - | - | - | - |
| 1788002568 | 77° F | 58% | 753.7 mmHg | - | - | - | - |
| 1788001666 | 76° F | 58% | 753.5 mmHg | - | - | - | - |
| 1788000766 | 77° F | 57% | 753.7 mmHg | - | - | - | - |
| 1787999866 | 78° F | 57% | 753.7 mmHg | - | - | - | - |
| 1787998966 | 78° F | 56% | 753.8 mmHg | - | - | - | - |
| 1787998065 | 78° F | 58% | 753.7 mmHg | - | - | - | - |
| 1787997165 | 77° F | 59% | 753.7 mmHg | - | - | - | - |
| 1787996265 | 77° F | 59% | 753.7 mmHg | - | - | - | - |
| 1787995364 | 78° F | 57% | 753.6 mmHg | - | - | - | - |
| 1787991997 | 97° F | 43% | 753.1 mmHg | - | - | - | - |
| 1787991097 | 102° F | 41% | 753.1 mmHg | - | - | - | - |
| 1787990196 | 94° F | 48% | 753.4 mmHg | - | - | - | - |
| 1787989295 | 72° F | 65% | 753.3 mmHg | - | - | - | - |
| 1787952965 | 71° F | 71% | 752.1 mmHg | - | - | - | - |
| 1787952065 | 71° F | 71% | 752 mmHg | - | - | - | - |
| 1787951164 | 71° F | 71% | 751.8 mmHg | - | - | - | - |
| 1787950264 | 71° F | 71% | 751.8 mmHg | - | - | - | - |
| 1787949364 | 72° F | 70% | 751.6 mmHg | - | - | - | - |
| 1787948463 | 72° F | 69% | 751.8 mmHg | - | - | - | - |
| 1787947562 | 73° F | 68% | 751.6 mmHg | - | - | - | - |
| 1787946662 | 73° F | 68% | 751.6 mmHg | - | - | - | - |
* Rain since midnight (hover to see other rain measurements)
** Current wind speed in m/s (hover to see current wind gust speed)